createdAt,value
2023-03-18T00:02:14.194Z,11.52
2023-03-18T00:05:36.747Z,11.51
2023-03-18T00:08:58.543Z,11.51
2023-03-18T00:12:20.481Z,11.55
2023-03-18T00:15:42.255Z,11.55
2023-03-18T00:19:05.522Z,11.49
2023-03-18T00:22:28.231Z,11.21
2023-03-18T00:25:54.795Z,10.96
2023-03-18T00:29:16.665Z,10.95
2023-03-18T00:32:38.779Z,10.88
2023-03-18T00:36:00.842Z,10.86
2023-03-18T00:39:26.475Z,10.92
2023-03-18T00:42:57.455Z,11.02
2023-03-18T00:46:34.338Z,11.15
2023-03-18T00:49:56.466Z,11.22
2023-03-18T00:53:18.825Z,11.28
2023-03-18T00:56:41.343Z,11.34
2023-03-18T01:00:07.105Z,11.19
2023-03-18T01:03:28.941Z,11.23
2023-03-18T01:06:51.190Z,11.31
2023-03-18T01:10:15.836Z,11.31
2023-03-18T01:13:40.326Z,11.34
2023-03-18T01:17:05.848Z,11.33
2023-03-18T01:20:27.706Z,11.19
2023-03-18T01:23:51.465Z,10.91
2023-03-18T01:27:13.881Z,10.74
2023-03-18T01:30:38.239Z,10.45
2023-03-18T01:34:02.131Z,10.30
2023-03-18T01:37:33.380Z,10.10
2023-03-18T01:41:05.076Z,10.00
2023-03-18T01:44:27.569Z,9.78
2023-03-18T01:47:51.980Z,9.69
2023-03-18T01:51:14.932Z,9.62
2023-03-18T01:54:52.281Z,9.55
2023-03-18T01:58:29.050Z,9.32
2023-03-18T02:02:02.790Z,9.20
2023-03-18T02:05:29.662Z,9.07
2023-03-18T02:08:52.870Z,8.88
2023-03-18T02:12:24.274Z,8.64
2023-03-18T02:15:57.949Z,8.67
2023-03-18T02:19:51.654Z,8.55
2023-03-18T02:23:44.988Z,8.28
2023-03-18T02:27:30.054Z,8.32
2023-03-18T02:31:09.539Z,8.10
2023-03-18T02:34:34.291Z,7.94
2023-03-18T02:37:57.229Z,7.84
2023-03-18T02:41:28.497Z,7.75
2023-03-18T02:44:50.618Z,7.62
2023-03-18T02:48:38.660Z,7.60
2023-03-18T02:52:01.189Z,7.56
2023-03-18T02:55:23.017Z,7.66
2023-03-18T02:58:45.906Z,7.79
2023-03-18T03:02:10.665Z,7.74
2023-03-18T03:05:34.968Z,7.77
2023-03-18T03:08:57.323Z,7.73
2023-03-18T03:12:20.721Z,7.71
2023-03-18T03:15:49.580Z,7.66
2023-03-18T03:19:12.907Z,7.67
2023-03-18T03:22:35.555Z,7.59
2023-03-18T03:25:59.029Z,7.54
2023-03-18T03:29:22.431Z,7.53
2023-03-18T03:32:45.703Z,7.41
2023-03-18T03:36:17.712Z,7.20
2023-03-18T03:39:41.541Z,6.99
2023-03-18T03:43:03.987Z,6.84
2023-03-18T03:46:26.340Z,6.77
2023-03-18T03:49:48.529Z,6.70
2023-03-18T03:53:12.560Z,6.70
2023-03-18T03:56:35.544Z,6.64
2023-03-18T03:59:59.632Z,6.66
2023-03-18T04:03:36.280Z,6.64
2023-03-18T04:07:03.108Z,6.48
2023-03-18T04:10:26.372Z,6.37
2023-03-18T04:13:48.775Z,6.45
2023-03-18T04:17:11.403Z,6.54
2023-03-18T04:20:38.718Z,6.54
2023-03-18T04:24:10.783Z,6.49
2023-03-18T04:27:33.758Z,6.49
2023-03-18T04:31:03.118Z,6.49
2023-03-18T04:34:25.066Z,6.62
2023-03-18T04:37:48.666Z,6.76
2023-03-18T04:41:13.048Z,6.93
2023-03-18T04:44:35.114Z,7.08
2023-03-18T04:47:57.079Z,7.21
2023-03-18T04:51:20.647Z,7.36
2023-03-18T04:54:43.450Z,7.27
2023-03-18T04:58:05.919Z,7.17
2023-03-18T05:01:34.247Z,7.11
2023-03-18T05:04:57.486Z,7.10
2023-03-18T05:08:19.732Z,7.37
2023-03-18T05:11:43.308Z,7.66
2023-03-18T05:15:14.261Z,7.86
2023-03-18T05:18:43.063Z,8.03
2023-03-18T05:22:04.980Z,8.13
2023-03-18T05:25:28.440Z,8.11
2023-03-18T05:28:52.506Z,8.16
2023-03-18T05:32:26.341Z,8.12
2023-03-18T05:35:55.488Z,8.01
2023-03-18T05:39:23.079Z,7.93
2023-03-18T05:42:55.860Z,8.05
2023-03-18T05:46:29.457Z,7.97
2023-03-18T05:50:04.408Z,7.82
2023-03-18T05:53:28.576Z,7.80
2023-03-18T05:57:00.595Z,7.68
2023-03-18T06:00:30.677Z,7.72
2023-03-18T06:03:55.119Z,7.81
2023-03-18T06:07:18.024Z,7.83
2023-03-18T06:10:40.177Z,7.93
2023-03-18T06:14:03.203Z,8.04
2023-03-18T06:17:25.809Z,8.13
2023-03-18T06:20:47.700Z,8.31
2023-03-18T06:24:09.665Z,8.36
2023-03-18T06:27:33.999Z,8.53
2023-03-18T06:30:58.205Z,8.82
2023-03-18T06:34:21.928Z,9.44
2023-03-18T06:37:43.933Z,9.77
2023-03-18T06:41:06.996Z,10.11
2023-03-18T06:44:32.629Z,10.50
2023-03-18T06:48:04.784Z,10.52
2023-03-18T06:51:30.320Z,10.62
2023-03-18T06:54:53.401Z,10.62
2023-03-18T06:58:17.349Z,10.81
2023-03-18T07:01:47.185Z,10.81
2023-03-18T07:05:14.726Z,10.81
2023-03-18T07:08:40.463Z,10.79
2023-03-18T07:12:02.640Z,10.82
2023-03-18T07:15:26.471Z,10.95
2023-03-18T07:18:53.489Z,11.12
2023-03-18T07:22:19.316Z,11.39
2023-03-18T07:25:44.565Z,11.89
2023-03-18T07:29:06.903Z,12.25
2023-03-18T07:32:30.616Z,12.52
2023-03-18T07:35:52.537Z,13.11
2023-03-18T07:39:20.805Z,13.53
2023-03-18T07:42:51.562Z,13.68
2023-03-18T07:46:14.420Z,13.99
2023-03-18T07:49:36.472Z,14.12
2023-03-18T07:52:59.753Z,14.30
2023-03-18T07:56:21.661Z,14.52
2023-03-18T07:59:50.859Z,14.54
2023-03-18T08:03:14.015Z,14.36
2023-03-18T08:06:35.969Z,14.46
2023-03-18T08:10:08.986Z,14.67
2023-03-18T08:13:39.525Z,15.07
2023-03-18T08:17:04.416Z,16.08
2023-03-18T08:20:27.227Z,17.11
2023-03-18T08:23:51.614Z,17.66
2023-03-18T08:27:13.693Z,17.93
2023-03-18T08:30:39.530Z,17.49
2023-03-18T08:34:02.430Z,16.79
2023-03-18T08:37:24.614Z,16.77
2023-03-18T08:40:48.217Z,16.61
2023-03-18T08:44:11.402Z,16.48
2023-03-18T08:47:35.316Z,16.39
2023-03-18T08:51:02.898Z,16.07
2023-03-18T08:54:33.052Z,15.98
2023-03-18T08:57:54.895Z,16.51
2023-03-18T09:01:21.902Z,16.55
2023-03-18T09:04:51.219Z,16.77
2023-03-18T09:08:17.135Z,17.16
2023-03-18T09:11:39.788Z,16.96
2023-03-18T09:15:02.076Z,17.28
2023-03-18T09:18:25.124Z,17.92
2023-03-18T09:21:46.952Z,18.30
2023-03-18T09:25:14.616Z,18.60
2023-03-18T09:28:37.158Z,18.92
2023-03-18T09:32:00.532Z,19.11
2023-03-18T09:35:22.606Z,18.88
2023-03-18T09:38:44.496Z,18.69
2023-03-18T09:42:32.808Z,17.94
2023-03-18T09:46:04.917Z,18.03
2023-03-18T09:49:48.332Z,17.99
2023-03-18T09:53:55.069Z,17.96
2023-03-18T09:57:25.001Z,18.14
2023-03-18T10:00:48.263Z,18.04
2023-03-18T10:04:36.888Z,17.32
2023-03-18T10:08:12.961Z,16.96
2023-03-18T10:11:44.111Z,17.03
2023-03-18T10:15:41.385Z,16.83
2023-03-18T10:19:03.768Z,16.77
2023-03-18T10:22:54.808Z,16.24
2023-03-18T10:26:38.694Z,16.05
2023-03-18T10:30:57.326Z,15.93
2023-03-18T10:34:23.906Z,15.89
2023-03-18T10:38:04.349Z,16.46
2023-03-18T10:41:39.020Z,16.91
2023-03-18T10:45:33.658Z,17.25
2023-03-18T10:49:20.881Z,16.68
2023-03-18T10:53:02.270Z,16.67
2023-03-18T10:56:25.042Z,16.60
2023-03-18T10:59:47.779Z,16.58
2023-03-18T11:03:30.475Z,16.54
2023-03-18T11:07:02.930Z,16.19
2023-03-18T11:10:46.050Z,16.22
2023-03-18T11:14:20.811Z,16.48
2023-03-18T11:17:51.763Z,16.86
2023-03-18T11:21:14.916Z,17.04
2023-03-18T11:24:42.557Z,17.18
2023-03-18T11:28:17.825Z,17.94
2023-03-18T11:32:28.381Z,18.37
2023-03-18T11:36:08.953Z,18.84
2023-03-18T11:39:37.475Z,19.17
2023-03-18T11:43:03.176Z,19.01
2023-03-18T11:46:47.628Z,18.70
2023-03-18T11:50:21.068Z,18.69
2023-03-18T11:54:17.167Z,19.06
2023-03-18T11:57:57.641Z,18.99
2023-03-18T12:01:41.215Z,18.47
2023-03-18T12:05:45.038Z,17.87
2023-03-18T12:09:23.221Z,17.96
2023-03-18T12:13:37.844Z,17.74
2023-03-18T12:17:41.360Z,17.28
2023-03-18T12:22:05.362Z,17.24
2023-03-18T12:25:50.506Z,17.57
2023-03-18T12:29:49.903Z,17.63
2023-03-18T12:33:50.806Z,17.53
2023-03-18T12:37:53.859Z,18.13
2023-03-18T12:42:01.570Z,18.77
2023-03-18T12:45:34.518Z,19.38
2023-03-18T12:49:25.164Z,19.30
2023-03-18T12:53:09.920Z,19.24
2023-03-18T12:56:48.607Z,19.02
2023-03-18T13:00:49.999Z,19.41
2023-03-18T13:04:28.293Z,19.65
2023-03-18T13:08:38.504Z,19.46
2023-03-18T13:12:07.562Z,19.70
2023-03-18T13:15:52.608Z,19.25
2023-03-18T13:19:15.942Z,18.72
2023-03-18T13:22:43.915Z,18.88
2023-03-18T13:27:03.551Z,19.15
2023-03-18T13:30:59.214Z,19.48
2023-03-18T13:35:20.583Z,20.10
2023-03-18T13:38:59.580Z,20.64
2023-03-18T13:42:39.535Z,20.49
2023-03-18T13:46:23.715Z,20.09
2023-03-18T13:49:49.041Z,19.63
2023-03-18T13:53:34.414Z,19.16
2023-03-18T13:57:22.059Z,18.96
2023-03-18T14:01:29.237Z,18.90
2023-03-18T14:04:56.907Z,19.01
2023-03-18T14:08:47.373Z,18.67
2023-03-18T14:12:33.837Z,18.62
2023-03-18T14:15:58.947Z,18.36
2023-03-18T14:19:32.373Z,18.39
2023-03-18T14:23:33.203Z,18.26
2023-03-18T14:26:58.097Z,18.36
2023-03-18T14:30:54.539Z,18.85
2023-03-18T14:35:32.504Z,18.94
2023-03-18T14:39:16.693Z,18.23
2023-03-18T14:43:24.885Z,17.81
2023-03-18T14:46:51.668Z,17.85
2023-03-18T14:50:45.220Z,18.14
2023-03-18T14:54:24.934Z,18.28
2023-03-18T14:57:47.853Z,18.32
2023-03-18T15:01:18.352Z,18.45
2023-03-18T15:04:55.722Z,18.30
2023-03-18T15:08:28.037Z,18.59
2023-03-18T15:11:58.203Z,18.52
2023-03-18T15:15:27.060Z,18.40
2023-03-18T15:18:54.867Z,18.91
2023-03-18T15:22:26.128Z,19.42
2023-03-18T15:25:50.048Z,19.76
2023-03-18T15:29:36.280Z,19.96
2023-03-18T15:33:28.399Z,19.88
2023-03-18T15:36:57.938Z,19.80
2023-03-18T15:40:36.146Z,19.64
2023-03-18T15:44:16.649Z,19.09
2023-03-18T15:47:43.813Z,18.39
2023-03-18T15:51:38.514Z,17.74
2023-03-18T15:55:04.206Z,17.45
2023-03-18T15:58:38.286Z,17.21
2023-03-18T16:02:01.498Z,17.17
2023-03-18T16:05:35.863Z,17.12
2023-03-18T16:08:58.738Z,17.01
2023-03-18T16:12:24.815Z,16.79
2023-03-18T16:16:01.532Z,16.80
2023-03-18T16:19:31.312Z,16.74
2023-03-18T16:22:53.444Z,16.69
2023-03-18T16:26:19.549Z,16.65
2023-03-18T16:29:41.524Z,16.51
2023-03-18T16:33:13.129Z,16.29
2023-03-18T16:36:40.990Z,16.16
2023-03-18T16:40:26.406Z,15.95
2023-03-18T16:43:53.974Z,15.79
2023-03-18T16:47:27.107Z,15.84
2023-03-18T16:50:57.390Z,15.87
2023-03-18T16:54:29.816Z,15.84
2023-03-18T16:58:00.879Z,15.66
2023-03-18T17:01:24.831Z,15.46
2023-03-18T17:04:46.823Z,15.30
2023-03-18T17:08:13.029Z,15.11
2023-03-18T17:11:37.451Z,15.07
2023-03-18T17:15:05.953Z,15.06
2023-03-18T17:18:30.164Z,15.12
2023-03-18T17:21:56.370Z,15.28
2023-03-18T17:25:27.556Z,15.32
2023-03-18T17:28:50.495Z,15.19
2023-03-18T17:32:16.572Z,14.95
2023-03-18T17:35:39.456Z,14.74
2023-03-18T17:39:05.916Z,14.53
2023-03-18T17:42:33.003Z,14.22
2023-03-18T17:46:00.575Z,14.02
2023-03-18T17:49:27.751Z,13.87
2023-03-18T17:52:52.933Z,13.68
2023-03-18T17:56:19.261Z,13.44
2023-03-18T17:59:41.325Z,13.23
2023-03-18T18:03:03.954Z,13.04
2023-03-18T18:06:29.320Z,12.94
2023-03-18T18:09:52.681Z,12.70
2023-03-18T18:13:38.161Z,12.61
2023-03-18T18:17:00.304Z,12.41
2023-03-18T18:20:29.408Z,12.29
2023-03-18T18:23:54.402Z,12.18
2023-03-18T18:27:16.412Z,12.06
2023-03-18T18:30:57.494Z,11.89
2023-03-18T18:34:21.222Z,11.66
2023-03-18T18:37:43.815Z,11.62
2023-03-18T18:41:07.572Z,11.57
2023-03-18T18:44:29.561Z,11.50
2023-03-18T18:48:18.104Z,11.46
2023-03-18T18:51:41.118Z,11.25
2023-03-18T18:55:03.714Z,11.04
2023-03-18T18:58:32.523Z,10.97
2023-03-18T19:01:55.437Z,10.95
2023-03-18T19:05:20.670Z,11.18
2023-03-18T19:08:43.567Z,11.26
2023-03-18T19:12:16.903Z,11.46
2023-03-18T19:15:39.148Z,11.78
2023-03-18T19:19:02.954Z,11.87
2023-03-18T19:22:26.770Z,12.02
2023-03-18T19:25:49.055Z,11.99
2023-03-18T19:29:18.141Z,12.07
2023-03-18T19:32:40.184Z,12.17
2023-03-18T19:36:19.248Z,12.10
2023-03-18T19:39:44.815Z,11.99
2023-03-18T19:43:18.658Z,11.77
2023-03-18T19:46:42.065Z,11.66
2023-03-18T19:50:17.997Z,11.85
2023-03-18T19:53:47.127Z,12.06
2023-03-18T19:57:25.032Z,12.10
2023-03-18T20:00:55.130Z,11.99
2023-03-18T20:04:29.955Z,12.04
2023-03-18T20:07:52.842Z,12.06
2023-03-18T20:11:22.899Z,12.17
2023-03-18T20:14:44.712Z,12.23
2023-03-18T20:18:14.934Z,12.27
2023-03-18T20:21:37.963Z,12.31
2023-03-18T20:25:08.557Z,12.25
2023-03-18T20:28:30.901Z,12.29
2023-03-18T20:31:53.296Z,12.19
2023-03-18T20:35:15.637Z,12.20
2023-03-18T20:38:39.886Z,12.20
2023-03-18T20:42:32.841Z,12.16
2023-03-18T20:45:57.717Z,12.27
2023-03-18T20:49:19.663Z,12.36
2023-03-18T20:52:48.964Z,12.58
2023-03-18T20:56:24.926Z,12.71
2023-03-18T20:59:50.229Z,12.79
2023-03-18T21:03:34.409Z,12.74
2023-03-18T21:07:13.347Z,12.72
2023-03-18T21:10:37.182Z,12.73
2023-03-18T21:14:00.336Z,12.74
2023-03-18T21:17:28.104Z,12.71
2023-03-18T21:20:59.359Z,12.56
2023-03-18T21:24:33.250Z,12.37
2023-03-18T21:27:55.690Z,12.29
2023-03-18T21:31:33.110Z,12.24
2023-03-18T21:34:56.195Z,12.09
2023-03-18T21:38:21.244Z,12.13
2023-03-18T21:41:44.131Z,12.28
2023-03-18T21:45:16.360Z,12.45
2023-03-18T21:48:40.335Z,12.43
2023-03-18T21:52:26.090Z,12.42
2023-03-18T21:55:58.319Z,12.44
2023-03-18T21:59:20.185Z,12.43
2023-03-18T22:02:42.719Z,12.46
2023-03-18T22:06:06.783Z,12.46
2023-03-18T22:09:28.576Z,12.50
2023-03-18T22:12:58.412Z,12.56
2023-03-18T22:16:27.219Z,12.59
2023-03-18T22:19:50.704Z,12.64
2023-03-18T22:23:27.318Z,12.62
2023-03-18T22:26:50.493Z,12.47
2023-03-18T22:30:12.957Z,12.38
2023-03-18T22:33:34.775Z,12.16
2023-03-18T22:37:02.582Z,12.03
2023-03-18T22:40:32.154Z,11.92
2023-03-18T22:43:59.709Z,11.90
2023-03-18T22:47:26.167Z,11.92
2023-03-18T22:50:49.970Z,11.89
2023-03-18T22:54:18.856Z,11.84
2023-03-18T22:57:42.704Z,11.83
2023-03-18T23:01:16.612Z,11.76
2023-03-18T23:04:44.130Z,11.72
2023-03-18T23:08:06.225Z,11.75
2023-03-18T23:11:34.340Z,11.71
2023-03-18T23:14:59.793Z,11.55
2023-03-18T23:18:24.116Z,11.30
2023-03-18T23:21:45.975Z,11.02
2023-03-18T23:25:17.635Z,10.74
2023-03-18T23:28:45.832Z,10.69
2023-03-18T23:32:11.232Z,10.59
2023-03-18T23:35:38.586Z,10.48
2023-03-18T23:39:01.845Z,10.34
2023-03-18T23:42:30.474Z,10.19
2023-03-18T23:45:52.427Z,10.11
2023-03-18T23:49:15.639Z,10.08
2023-03-18T23:52:38.240Z,10.13
2023-03-18T23:56:13.620Z,10.19
2023-03-18T23:59:39.102Z,10.23
